createdAt,value
2022-07-26T00:02:48.977Z,50.60
2022-07-26T00:05:50.832Z,49.90
2022-07-26T00:08:53.269Z,51.60
2022-07-26T00:11:55.442Z,52.60
2022-07-26T00:14:57.339Z,52.70
2022-07-26T00:17:59.262Z,54.40
2022-07-26T00:21:01.132Z,53.00
2022-07-26T00:24:06.446Z,52.50
2022-07-26T00:27:08.225Z,52.60
2022-07-26T00:30:10.839Z,53.10
2022-07-26T00:33:16.943Z,52.60
2022-07-26T00:36:18.795Z,52.50
2022-07-26T00:39:20.705Z,52.30
2022-07-26T00:42:22.474Z,52.80
2022-07-26T00:45:24.452Z,53.40
2022-07-26T00:48:26.411Z,52.80
2022-07-26T00:51:28.896Z,54.50
2022-07-26T00:54:30.747Z,53.80
2022-07-26T00:57:33.168Z,54.10
2022-07-26T01:00:35.079Z,54.20
2022-07-26T01:03:39.503Z,54.90
2022-07-26T01:06:41.997Z,54.20
2022-07-26T01:09:44.631Z,54.50
2022-07-26T01:12:46.409Z,55.00
2022-07-26T01:15:48.753Z,55.70
2022-07-26T01:18:50.519Z,55.20
2022-07-26T01:21:52.594Z,55.40
2022-07-26T01:24:54.468Z,55.90
2022-07-26T01:27:56.367Z,56.90
2022-07-26T01:30:58.259Z,59.00
2022-07-26T01:34:00.310Z,59.80
2022-07-26T01:37:02.431Z,59.90
2022-07-26T01:40:04.716Z,62.30
2022-07-26T01:43:08.890Z,61.50
2022-07-26T01:46:11.027Z,61.20
2022-07-26T01:49:13.399Z,61.00
2022-07-26T01:52:15.363Z,60.40
2022-07-26T01:55:17.200Z,59.90
2022-07-26T01:58:19.052Z,61.80
2022-07-26T02:01:39.255Z,61.40
2022-07-26T02:04:41.983Z,61.00
2022-07-26T02:07:44.577Z,61.50
2022-07-26T02:10:46.728Z,61.20
2022-07-26T02:13:53.029Z,61.20
2022-07-26T02:16:55.231Z,61.40
2022-07-26T02:19:59.752Z,62.00
2022-07-26T02:23:02.213Z,61.80
2022-07-26T02:26:04.622Z,61.80
2022-07-26T02:29:06.393Z,61.30
2022-07-26T02:32:08.521Z,61.50
2022-07-26T02:35:10.575Z,61.40
2022-07-26T02:38:13.836Z,61.40
2022-07-26T02:41:15.627Z,61.40
2022-07-26T02:44:19.689Z,61.10
2022-07-26T02:47:23.761Z,61.30
2022-07-26T02:50:26.396Z,61.60
2022-07-26T02:53:28.295Z,61.30
2022-07-26T02:56:30.136Z,61.70
2022-07-26T02:59:31.957Z,62.20
2022-07-26T03:02:33.727Z,61.90
2022-07-26T03:05:35.549Z,62.10
2022-07-26T03:08:39.677Z,62.80
2022-07-26T03:11:41.458Z,61.90
2022-07-26T03:14:44.264Z,61.80
2022-07-26T03:17:46.064Z,61.80
2022-07-26T03:20:47.883Z,61.40
2022-07-26T03:23:49.718Z,61.90
2022-07-26T03:26:51.548Z,61.40
2022-07-26T03:29:53.731Z,61.00
2022-07-26T03:32:55.505Z,62.00
2022-07-26T03:35:57.274Z,62.20
2022-07-26T03:38:59.271Z,62.50
2022-07-26T03:42:01.101Z,62.60
2022-07-26T03:45:03.466Z,62.50
2022-07-26T03:48:05.388Z,62.40
2022-07-26T03:51:07.185Z,63.00
2022-07-26T03:54:09.534Z,63.20
2022-07-26T03:57:11.533Z,63.20
2022-07-26T04:00:14.025Z,63.20
2022-07-26T04:03:15.910Z,63.60
2022-07-26T04:06:17.977Z,63.60
2022-07-26T04:09:19.938Z,63.40
2022-07-26T04:12:21.733Z,64.00
2022-07-26T04:15:23.584Z,64.00
2022-07-26T04:18:25.383Z,63.70
2022-07-26T04:21:27.195Z,63.40
2022-07-26T04:24:29.011Z,63.30
2022-07-26T04:27:30.925Z,63.40
2022-07-26T04:30:32.877Z,62.80
2022-07-26T04:33:35.156Z,63.10
2022-07-26T04:36:36.904Z,63.50
2022-07-26T04:39:38.678Z,63.70
2022-07-26T04:42:42.731Z,63.60
2022-07-26T04:45:47.339Z,63.70
2022-07-26T04:48:49.210Z,63.60
2022-07-26T04:51:52.467Z,64.10
2022-07-26T04:54:56.817Z,63.80
2022-07-26T04:57:58.649Z,64.20
2022-07-26T05:01:09.897Z,64.40
2022-07-26T05:04:12.042Z,64.10
2022-07-26T05:07:13.783Z,62.30
2022-07-26T05:10:16.814Z,61.50
2022-07-26T05:13:18.576Z,62.60
2022-07-26T05:16:31.472Z,61.80
2022-07-26T05:19:33.373Z,61.30
2022-07-26T05:22:35.711Z,61.00
2022-07-26T05:25:37.604Z,61.10
2022-07-26T05:28:39.595Z,60.90
2022-07-26T05:31:42.156Z,60.60
2022-07-26T05:34:44.066Z,61.00
2022-07-26T05:37:45.814Z,59.60
2022-07-26T05:40:50.704Z,59.10
2022-07-26T05:43:52.835Z,59.10
2022-07-26T05:46:54.591Z,59.00
2022-07-26T05:49:56.627Z,59.10
2022-07-26T05:52:58.421Z,57.70
2022-07-26T05:56:00.183Z,57.30
2022-07-26T05:59:02.198Z,57.30
2022-07-26T06:02:04.033Z,56.70
2022-07-26T06:05:05.915Z,57.80
2022-07-26T06:08:07.774Z,56.90
2022-07-26T06:11:09.874Z,57.90
2022-07-26T06:14:12.296Z,58.60
2022-07-26T06:17:14.595Z,56.90
2022-07-26T06:20:16.390Z,56.50
2022-07-26T06:23:18.547Z,56.70
2022-07-26T06:26:36.192Z,56.10
2022-07-26T06:29:38.008Z,54.40
2022-07-26T06:32:39.827Z,53.60
2022-07-26T06:35:41.717Z,53.00
2022-07-26T06:38:43.704Z,53.30
2022-07-26T06:41:45.578Z,53.40
2022-07-26T06:44:47.464Z,54.50
2022-07-26T06:47:49.192Z,51.40
2022-07-26T06:50:51.450Z,49.60
2022-07-26T06:53:53.343Z,48.30
2022-07-26T06:56:55.201Z,48.50
2022-07-26T06:59:57.055Z,47.00
2022-07-26T07:02:58.879Z,45.10
2022-07-26T07:06:00.674Z,46.30
2022-07-26T07:09:02.441Z,45.10
2022-07-26T07:12:10.043Z,46.50
2022-07-26T07:15:12.578Z,46.10
2022-07-26T07:18:14.410Z,44.80
2022-07-26T07:21:16.330Z,44.30
2022-07-26T07:24:18.316Z,43.00
2022-07-26T07:27:20.195Z,43.60
2022-07-26T07:30:22.899Z,41.90
2022-07-26T07:33:25.802Z,41.10
2022-07-26T07:36:27.904Z,40.80
2022-07-26T07:39:34.896Z,40.10
2022-07-26T07:42:40.967Z,39.60
2022-07-26T07:45:42.932Z,39.90
2022-07-26T07:48:50.278Z,38.50
2022-07-26T07:51:52.126Z,39.10
2022-07-26T07:55:06.434Z,39.90
2022-07-26T07:58:17.210Z,39.50
2022-07-26T08:01:19.899Z,37.80
2022-07-26T08:04:22.142Z,38.60
2022-07-26T08:07:24.070Z,38.90
2022-07-26T08:10:34.936Z,37.10
2022-07-26T08:13:44.533Z,37.70
2022-07-26T08:16:49.949Z,34.90
2022-07-26T08:19:52.992Z,36.90
2022-07-26T08:22:57.525Z,36.10
2022-07-26T08:26:03.228Z,35.40
2022-07-26T08:29:08.149Z,34.20
2022-07-26T08:32:09.934Z,34.20
2022-07-26T08:35:17.723Z,33.90
2022-07-26T08:38:22.037Z,34.30
2022-07-26T08:41:23.798Z,36.10
2022-07-26T08:44:26.206Z,35.50
2022-07-26T08:47:35.447Z,34.40
2022-07-26T08:50:44.990Z,33.00
2022-07-26T08:53:47.510Z,35.00
2022-07-26T08:56:50.547Z,33.20
2022-07-26T09:00:11.144Z,35.20
2022-07-26T09:03:24.362Z,33.90
2022-07-26T09:06:28.273Z,32.10
2022-07-26T09:09:31.230Z,30.50
2022-07-26T09:12:33.358Z,31.00
2022-07-26T09:15:35.226Z,30.90
2022-07-26T09:18:37.044Z,31.50
2022-07-26T09:21:38.912Z,33.60
2022-07-26T09:24:42.129Z,33.50
2022-07-26T09:27:44.010Z,35.40
2022-07-26T09:30:51.535Z,36.90
2022-07-26T09:33:53.507Z,36.60
2022-07-26T09:36:55.932Z,34.90
2022-07-26T09:39:59.071Z,35.40
2022-07-26T09:43:05.041Z,37.10
2022-07-26T09:46:07.125Z,37.00
2022-07-26T09:49:20.211Z,34.20
2022-07-26T09:52:23.841Z,33.70
2022-07-26T09:55:26.282Z,34.00
2022-07-26T09:58:28.491Z,33.40
2022-07-26T10:01:30.367Z,31.10
2022-07-26T10:04:32.338Z,31.60
2022-07-26T10:07:34.671Z,32.10
2022-07-26T10:10:42.450Z,31.90
2022-07-26T10:13:44.194Z,31.10
2022-07-26T10:16:45.968Z,31.10
2022-07-26T10:19:48.042Z,30.90
2022-07-26T10:22:50.068Z,29.90
2022-07-26T10:25:51.866Z,31.10
2022-07-26T10:28:53.610Z,30.90
2022-07-26T10:31:55.753Z,30.90
2022-07-26T10:34:57.628Z,30.70
2022-07-26T10:38:08.608Z,31.90
2022-07-26T10:41:10.535Z,32.50
2022-07-26T10:44:13.391Z,33.70
2022-07-26T10:47:16.128Z,34.00
2022-07-26T11:03:26.122Z,32.30
2022-07-26T11:06:29.339Z,33.30
2022-07-26T11:09:34.543Z,34.70
2022-07-26T11:12:36.320Z,35.00
2022-07-26T11:15:39.504Z,34.70
2022-07-26T11:18:41.302Z,37.20
2022-07-26T11:21:46.846Z,37.20
2022-07-26T11:24:48.754Z,37.80
2022-07-26T11:28:03.455Z,37.20
2022-07-26T11:31:09.645Z,35.10
2022-07-26T11:34:22.841Z,33.50
2022-07-26T11:37:24.623Z,35.10
2022-07-26T11:40:42.699Z,36.80
2022-07-26T11:43:44.486Z,35.90
2022-07-26T11:46:46.760Z,37.00
2022-07-26T11:50:00.233Z,37.50
2022-07-26T11:53:23.190Z,37.00
2022-07-26T11:56:25.924Z,36.10
2022-07-26T11:59:30.045Z,34.20
2022-07-26T12:02:31.828Z,36.10
2022-07-26T12:05:33.892Z,36.20
2022-07-26T12:08:54.218Z,36.50
2022-07-26T12:11:58.101Z,35.90
2022-07-26T12:15:04.283Z,35.00
2022-07-26T12:18:07.510Z,35.90
2022-07-26T12:21:09.743Z,38.10
2022-07-26T12:24:13.038Z,37.20
2022-07-26T12:27:15.092Z,37.90
2022-07-26T12:30:16.949Z,36.20
2022-07-26T12:33:18.762Z,36.20
2022-07-26T12:36:28.139Z,34.70
2022-07-26T12:39:31.517Z,34.90
2022-07-26T12:42:35.116Z,35.60
2022-07-26T12:45:39.161Z,35.30
2022-07-26T12:48:40.996Z,36.70
2022-07-26T12:51:42.781Z,34.30
2022-07-26T12:54:45.269Z,36.00
2022-07-26T12:57:47.862Z,37.20
2022-07-26T13:00:49.824Z,37.10
2022-07-26T13:03:51.635Z,36.70
2022-07-26T13:06:53.437Z,36.10
2022-07-26T13:10:29.964Z,37.80
2022-07-26T13:13:17.178Z,36.20
2022-07-26T13:16:19.093Z,38.80
2022-07-26T13:19:21.307Z,36.80
2022-07-26T13:22:23.147Z,36.90
2022-07-26T13:25:25.166Z,36.10
2022-07-26T13:28:31.034Z,37.70
2022-07-26T13:31:33.258Z,36.40
2022-07-26T13:34:35.431Z,35.10
2022-07-26T13:37:37.278Z,36.20
2022-07-26T13:40:39.073Z,34.40
2022-07-26T13:43:41.074Z,35.20
2022-07-26T13:46:43.023Z,36.60
2022-07-26T13:49:44.935Z,34.10
2022-07-26T13:52:46.775Z,36.30
2022-07-26T13:55:48.567Z,35.40
2022-07-26T13:58:50.387Z,32.60
2022-07-26T14:01:52.751Z,33.70
2022-07-26T14:04:54.864Z,34.50
2022-07-26T14:07:56.633Z,34.80
2022-07-26T14:10:58.473Z,35.40
2022-07-26T14:14:00.793Z,36.00
2022-07-26T14:17:02.785Z,36.50
2022-07-26T14:20:05.063Z,36.10
2022-07-26T14:23:06.934Z,35.00
2022-07-26T14:26:08.751Z,35.30
2022-07-26T14:29:10.664Z,36.20
2022-07-26T14:32:15.043Z,34.40
2022-07-26T14:35:19.845Z,36.10
2022-07-26T14:38:28.070Z,34.20
2022-07-26T14:41:31.710Z,34.10
2022-07-26T14:44:34.175Z,34.70
2022-07-26T14:47:46.202Z,34.70
2022-07-26T14:51:08.713Z,34.80
2022-07-26T14:54:10.051Z,35.10
2022-07-26T14:57:12.170Z,35.60
2022-07-26T15:00:15.805Z,36.40
2022-07-26T15:03:17.644Z,37.50
2022-07-26T15:06:19.452Z,35.50
2022-07-26T15:09:21.292Z,35.10
2022-07-26T15:12:23.095Z,34.20
2022-07-26T15:15:25.007Z,35.20
2022-07-26T15:18:26.881Z,35.40
2022-07-26T15:21:28.663Z,35.00
2022-07-26T15:24:30.491Z,35.20
2022-07-26T15:27:32.606Z,34.50
2022-07-26T15:30:35.140Z,34.00
2022-07-26T15:33:37.021Z,34.20
2022-07-26T15:36:38.871Z,34.10
2022-07-26T15:39:40.931Z,35.30
2022-07-26T15:42:44.408Z,33.30
2022-07-26T15:45:48.217Z,33.60
2022-07-26T15:48:51.185Z,32.80
2022-07-26T15:51:53.033Z,34.70
2022-07-26T15:54:54.827Z,35.00
2022-07-26T15:57:56.607Z,35.60
2022-07-26T16:00:58.556Z,35.60
2022-07-26T16:04:00.706Z,35.70
2022-07-26T16:07:02.537Z,36.80
2022-07-26T16:10:04.534Z,35.00
2022-07-26T16:13:06.371Z,35.80
2022-07-26T16:16:08.205Z,38.60
2022-07-26T16:19:11.044Z,37.70
2022-07-26T16:22:13.226Z,38.50
2022-07-26T16:25:15.017Z,37.10
2022-07-26T16:28:16.829Z,35.80
2022-07-26T16:31:18.678Z,36.70
2022-07-26T16:34:20.673Z,35.70
2022-07-26T16:37:22.481Z,35.50
2022-07-26T16:40:24.370Z,37.50
2022-07-26T16:43:26.289Z,37.50
2022-07-26T16:46:28.094Z,37.20
2022-07-26T16:49:30.423Z,35.20
2022-07-26T16:52:32.268Z,37.30
2022-07-26T16:55:34.291Z,36.00
2022-07-26T16:58:36.081Z,35.10
2022-07-26T17:01:37.916Z,36.60
2022-07-26T17:04:39.756Z,36.90
2022-07-26T17:07:41.635Z,39.30
2022-07-26T17:10:43.536Z,45.40
2022-07-26T17:13:45.475Z,45.40
2022-07-26T17:16:47.671Z,44.60
2022-07-26T17:19:49.625Z,45.50
2022-07-26T17:22:52.938Z,45.90
2022-07-26T17:25:54.720Z,47.10
2022-07-26T17:28:56.827Z,53.10
2022-07-26T17:31:58.703Z,51.40
2022-07-26T17:35:00.497Z,49.90
2022-07-26T17:38:02.244Z,48.50
2022-07-26T17:41:05.407Z,50.60
2022-07-26T17:44:07.561Z,51.90
2022-07-26T17:47:28.277Z,52.90
2022-07-26T17:50:37.070Z,50.80
2022-07-26T17:53:39.816Z,52.30
2022-07-26T17:56:41.623Z,57.70
2022-07-26T17:59:43.429Z,59.30
2022-07-26T18:02:45.478Z,51.00
2022-07-26T18:05:47.620Z,54.60
2022-07-26T18:08:49.674Z,52.60
2022-07-26T18:11:51.421Z,54.20
2022-07-26T18:14:53.261Z,50.60
2022-07-26T18:17:55.224Z,50.80
2022-07-26T18:20:57.011Z,55.10
2022-07-26T18:24:15.818Z,50.90
2022-07-26T19:37:23.581Z,50.20
2022-07-26T19:40:25.438Z,50.80
2022-07-26T19:43:27.780Z,50.80
2022-07-26T19:46:29.997Z,49.20
2022-07-26T19:49:31.979Z,52.90
2022-07-26T19:52:34.039Z,50.20
2022-07-26T19:55:36.135Z,51.50
2022-07-26T19:58:38.268Z,51.00
2022-07-26T20:01:40.306Z,51.20
2022-07-26T20:04:45.880Z,51.50
2022-07-26T20:07:48.199Z,48.80
2022-07-26T20:10:50.243Z,48.20
2022-07-26T20:13:52.110Z,48.70
2022-07-26T20:16:56.313Z,48.60
2022-07-26T20:19:58.459Z,47.70
2022-07-26T20:23:00.279Z,51.50
2022-07-26T20:26:02.039Z,48.60
2022-07-26T20:29:05.112Z,49.30
2022-07-26T20:32:07.037Z,48.50
2022-07-26T20:35:08.950Z,49.30
2022-07-26T20:38:11.046Z,49.00
2022-07-26T20:41:12.922Z,51.40
2022-07-26T20:44:15.677Z,50.00
2022-07-26T20:47:20.067Z,49.90
2022-07-26T20:50:22.279Z,48.70
2022-07-26T20:53:24.097Z,49.40
2022-07-26T20:56:26.344Z,50.90
2022-07-26T20:59:28.150Z,48.60
2022-07-26T21:02:30.086Z,50.20
2022-07-26T21:05:32.724Z,49.60
2022-07-26T21:08:34.785Z,49.50
2022-07-26T21:11:43.182Z,51.00
2022-07-26T21:14:45.008Z,50.80
2022-07-26T21:17:47.036Z,51.10
2022-07-26T21:20:48.879Z,50.30
2022-07-26T21:23:50.720Z,51.00
2022-07-26T21:26:52.799Z,51.90
2022-07-26T21:29:54.630Z,51.30
2022-07-26T21:32:56.716Z,51.80
2022-07-26T21:35:58.595Z,50.30
2022-07-26T21:39:00.401Z,48.90
2022-07-26T21:42:02.158Z,49.10
2022-07-26T21:45:04.497Z,52.20
2022-07-26T21:48:06.516Z,50.00
2022-07-26T21:51:08.374Z,50.00
2022-07-26T21:54:10.236Z,50.50
2022-07-26T21:57:12.073Z,51.90
2022-07-26T22:00:14.730Z,51.20
2022-07-26T22:03:16.542Z,51.80
2022-07-26T22:06:18.706Z,52.50
2022-07-26T22:09:20.550Z,51.80
2022-07-26T22:12:22.454Z,51.70
2022-07-26T22:15:24.196Z,51.10
2022-07-26T22:18:26.290Z,51.80
2022-07-26T22:21:28.217Z,52.90
2022-07-26T22:24:30.055Z,50.50
2022-07-26T22:27:31.882Z,51.40
2022-07-26T22:30:33.932Z,51.90
2022-07-26T22:33:35.739Z,51.60
2022-07-26T22:36:39.971Z,51.90
2022-07-26T22:39:47.098Z,51.70
2022-07-26T22:42:49.339Z,51.60
2022-07-26T22:45:51.173Z,52.10
2022-07-26T22:48:53.402Z,52.90
2022-07-26T22:51:55.310Z,53.40
2022-07-26T22:54:57.131Z,52.50
2022-07-26T22:57:59.128Z,52.60
2022-07-26T23:01:01.075Z,53.00
2022-07-26T23:04:03.338Z,53.10
2022-07-26T23:07:08.554Z,53.20
2022-07-26T23:10:11.044Z,53.40
2022-07-26T23:13:12.795Z,53.40
2022-07-26T23:16:14.649Z,53.80
2022-07-26T23:19:16.665Z,54.30
2022-07-26T23:22:18.564Z,53.60
2022-07-26T23:25:20.424Z,54.00
2022-07-26T23:28:35.685Z,54.70
2022-07-26T23:31:39.732Z,54.30
2022-07-26T23:34:41.666Z,54.80
2022-07-26T23:37:43.645Z,54.70
2022-07-26T23:40:45.454Z,54.80
2022-07-26T23:43:47.686Z,55.90
2022-07-26T23:46:49.588Z,54.80
2022-07-26T23:49:51.829Z,54.60
2022-07-26T23:52:53.613Z,54.70
2022-07-26T23:55:55.460Z,55.00
2022-07-26T23:58:57.241Z,55.10
